EST,Max TemperatureF,Mean TemperatureF,Min TemperatureF,Max Dew PointF,MeanDew PointF,Min DewpointF,Max Humidity, Mean Humidity, Min Humidity, Max Sea Level PressureIn, Mean Sea Level PressureIn, Min Sea Level PressureIn, Max VisibilityMiles, Mean VisibilityMiles, Min VisibilityMiles, Max Wind SpeedMPH, Mean Wind SpeedMPH, Max Gust SpeedMPH,PrecipitationIn, CloudCover, Events, WindDirDegrees
2013-1-1,34,27,20,32,25,12,96,79,62,30.17,30.07,30.01,10,6,1,16,6,20,0.04,8,Snow,301
2013-1-2,24,19,13,14,13,10,96,76,55,30.27,30.22,30.12,10,8,4,7,2,12,0.00,6,,227
2013-1-3,31,20,9,22,15,6,100,75,50,30.31,30.25,30.18,10,8,4,20,7,24,0.00,4,,235
2013-1-4,32,27,22,23,19,15,77,68,58,30.34,30.29,30.26,10,10,7,24,13,30,0.00,3,,240
2013-1-5,37,27,17,28,22,15,92,76,59,30.40,30.29,30.15,10,9,5,16,5,21,T,4,,198
2013-1-6,38,33,28,34,28,23,85,80,75,30.32,30.12,30.02,10,8,4,24,10,29,0.01,8,Rain,239
2013-1-7,35,31,26,25,24,22,85,75,64,30.50,30.38,30.29,10,7,4,14,6,16,0.00,4,,194
2013-1-8,45,34,22,31,26,20,100,79,57,30.36,30.30,30.26,10,9,7,10,4,14,0.00,3,,158
2013-1-9,49,40,31,39,33,26,92,77,61,30.53,30.33,30.22,10,10,8,17,7,21,0.06,6,Rain,219
2013-1-10,43,35,27,32,29,26,92,75,57,30.58,30.45,30.18,10,9,6,15,6,21,0.00,7,,101
2013-1-11,61,52,43,54,47,32,96,79,62,30.17,29.98,29.90,10,9,4,23,11,26,0.39,7,Rain,172
2013-1-12,66,58,49,61,56,47,100,87,73,30.05,29.97,29.85,10,9,5,16,8,21,T,8,Rain,174
2013-1-13,65,53,40,60,54,39,100,87,73,30.07,29.87,29.77,10,8,4,30,13,40,0.50,8,Rain,209
2013-1-14,40,34,28,39,26,19,100,82,63,30.44,30.30,30.08,10,10,9,17,10,22,0.00,8,,333
2013-1-15,33,29,25,23,21,19,88,75,61,30.40,30.30,30.09,10,10,8,13,7,15,0.00,6,,31
2013-1-16,37,35,32,29,26,23,85,72,59,30.08,30.02,29.96,10,9,6,17,7,22,0.00,8,,253
2013-1-17,38,32,26,28,25,16,82,71,59,30.34,30.17,30.08,10,10,7,21,6,28,0.00,7,,291
2013-1-18,35,27,19,25,16,10,77,62,47,30.54,30.42,30.23,10,10,10,21,10,25,0.00,1,,211
2013-1-19,53,43,33,28,24,22,64,47,29,30.23,30.06,29.88,10,10,10,30,17,39,0.00,1,,206
2013-1-20,45,35,25,32,16,11,62,53,43,30.21,30.09,29.86,10,10,10,33,15,40,0.00,4,,281
2013-1-21,25,18,11,18,10,-3,84,67,49,30.22,30.10,30.02,10,8,2,28,14,33,0.01,7,Snow,281
2013-1-22,17,12,7,-1,-3,-4,63,53,42,30.38,30.32,30.21,10,10,9,21,13,25,0.00,4,,277
2013-1-23,22,17,11,16,6,-2,77,57,36,30.36,30.23,30.07,10,7,2,17,9,22,0.01,7,Snow,251
2013-1-24,22,18,13,16,10,6,84,68,52,30.59,30.38,30.07,10,8,2,24,8,30,0.01,7,Snow,326
2013-1-25,24,21,17,20,13,5,92,72,51,30.49,30.17,30.02,10,6,0,14,7,18,0.20,8,Fog-Snow,161
2013-1-26,29,23,16,22,18,11,88,73,57,30.48,30.28,30.10,10,8,2,13,8,16,T,7,Snow,297
2013-1-27,34,23,12,30,18,9,88,75,61,30.52,30.42,30.25,10,9,5,14,6,16,0.13,6,Rain,114
2013-1-28,51,42,33,50,41,30,100,91,82,30.22,30.09,30.02,8,5,1,16,10,22,0.34,8,Rain,192
2013-1-29,67,57,47,55,51,48,100,82,63,30.06,29.94,29.66,10,6,1,23,12,32,0.00,7,,182
2013-1-30,65,51,36,56,48,28,93,80,67,29.62,29.40,29.26,10,9,4,38,19,48,0.46,7,Rain,204
2013-1-31,36,28,20,27,19,10,88,72,55,29.95,29.81,29.48,10,5,0,38,20,46,0.09,8,Fog-Snow,269